createdAt,value
2018-07-26T00:00:35.157Z,56.00
2018-07-26T00:03:03.766Z,55.90
2018-07-26T00:05:32.445Z,55.90
2018-07-26T00:08:00.847Z,56.80
2018-07-26T00:10:29.276Z,56.90
2018-07-26T00:12:57.727Z,56.70
2018-07-26T00:15:26.264Z,57.10
2018-07-26T00:17:54.655Z,57.30
2018-07-26T00:20:23.072Z,57.00
2018-07-26T00:22:51.443Z,56.60
2018-07-26T00:25:19.929Z,57.20
2018-07-26T00:27:48.408Z,57.00
2018-07-26T00:30:16.765Z,56.70
2018-07-26T00:32:46.145Z,56.80
2018-07-26T00:35:14.565Z,56.80
2018-07-26T00:37:42.916Z,56.90
2018-07-26T00:40:11.401Z,56.60
2018-07-26T00:45:08.188Z,58.10
2018-07-26T00:47:36.543Z,57.40
2018-07-26T00:50:04.979Z,57.50
2018-07-26T00:52:33.355Z,57.70
2018-07-26T00:55:01.755Z,57.30
2018-07-26T00:57:30.151Z,58.00
2018-07-26T00:59:58.579Z,58.00
2018-07-26T01:02:26.937Z,58.00
2018-07-26T01:04:55.377Z,58.10
2018-07-26T01:07:23.718Z,58.10
2018-07-26T01:09:52.266Z,58.20
2018-07-26T01:12:20.625Z,58.20
2018-07-26T01:14:49.364Z,58.20
2018-07-26T01:17:18.218Z,58.50
2018-07-26T01:19:46.641Z,58.50
2018-07-26T01:22:14.989Z,58.80
2018-07-26T01:24:43.372Z,58.80
2018-07-26T01:27:11.811Z,59.00
2018-07-26T01:29:40.163Z,59.00
2018-07-26T01:32:08.613Z,59.70
2018-07-26T01:34:37.028Z,59.60
2018-07-26T01:37:05.784Z,59.90
2018-07-26T01:39:34.217Z,60.00
2018-07-26T01:42:02.712Z,60.00
2018-07-26T01:44:31.138Z,60.10
2018-07-26T01:46:59.556Z,60.60
2018-07-26T01:49:28.066Z,59.90
2018-07-26T01:51:56.645Z,60.70
2018-07-26T01:54:25.054Z,60.80
2018-07-26T01:56:53.807Z,60.80
2018-07-26T01:59:22.180Z,60.80
2018-07-26T02:01:50.556Z,60.80
2018-07-26T02:04:18.956Z,60.70
2018-07-26T02:06:47.353Z,60.70
2018-07-26T02:09:15.773Z,60.60
2018-07-26T02:11:44.157Z,60.70
2018-07-26T02:14:18.085Z,60.70
2018-07-26T02:16:46.495Z,60.60
2018-07-26T02:21:43.075Z,60.50
2018-07-26T02:24:11.450Z,60.50
2018-07-26T02:26:39.850Z,60.50
2018-07-26T02:29:08.236Z,60.70
2018-07-26T02:31:36.836Z,60.50
2018-07-26T02:34:05.236Z,60.50
2018-07-26T02:39:01.884Z,60.40
2018-07-26T02:41:30.312Z,60.90
2018-07-26T02:43:58.893Z,61.20
2018-07-26T02:46:27.295Z,61.40
2018-07-26T02:48:55.700Z,61.40
2018-07-26T02:51:24.069Z,61.20
2018-07-26T02:53:52.506Z,60.30
2018-07-26T02:56:20.932Z,61.10
2018-07-26T02:58:49.307Z,61.30
2018-07-26T03:01:17.694Z,61.40
2018-07-26T03:03:46.117Z,61.30
2018-07-26T03:06:14.513Z,61.50
2018-07-26T03:08:42.913Z,61.50
2018-07-26T03:11:11.281Z,61.30
2018-07-26T03:13:39.845Z,61.80
2018-07-26T03:16:08.421Z,62.30
2018-07-26T03:18:36.820Z,62.00
2018-07-26T03:21:05.290Z,61.40
2018-07-26T03:23:33.696Z,61.10
2018-07-26T03:26:02.284Z,60.80
2018-07-26T03:28:30.635Z,60.80
2018-07-26T03:30:59.036Z,60.50
2018-07-26T03:33:27.423Z,60.50
2018-07-26T03:35:55.925Z,60.70
2018-07-26T03:38:24.269Z,60.40
2018-07-26T03:40:52.713Z,60.60
2018-07-26T03:43:21.072Z,60.60
2018-07-26T03:45:49.493Z,61.00
2018-07-26T03:48:17.867Z,60.80
2018-07-26T03:50:46.349Z,60.50
2018-07-26T03:53:14.729Z,60.50
2018-07-26T03:55:43.132Z,60.60
2018-07-26T03:58:11.532Z,60.70
2018-07-26T04:00:39.901Z,60.80
2018-07-26T04:03:08.318Z,60.80
2018-07-26T04:08:05.048Z,60.90
2018-07-26T04:10:33.764Z,61.00
2018-07-26T04:13:02.155Z,61.00
2018-07-26T04:15:30.747Z,61.10
2018-07-26T04:18:07.830Z,61.20
2018-07-26T04:20:37.972Z,61.20
2018-07-26T04:23:06.360Z,61.30
2018-07-26T04:25:34.704Z,60.60
2018-07-26T04:28:03.417Z,60.50
2018-07-26T04:30:31.830Z,60.50
2018-07-26T04:33:00.267Z,60.20
2018-07-26T04:35:28.643Z,59.00
2018-07-26T04:37:57.045Z,59.40
2018-07-26T04:40:25.405Z,59.30
2018-07-26T04:42:53.969Z,58.80
2018-07-26T04:45:22.525Z,58.60
2018-07-26T04:47:51.138Z,58.10
2018-07-26T04:50:19.537Z,57.50
2018-07-26T04:52:47.951Z,57.70
2018-07-26T04:55:16.345Z,57.50
2018-07-26T04:57:44.869Z,56.90
2018-07-26T05:00:13.252Z,56.30
2018-07-26T05:02:41.669Z,56.50
2018-07-26T05:05:10.060Z,56.60
2018-07-26T05:07:38.483Z,56.50
2018-07-26T05:10:07.068Z,56.20
2018-07-26T05:12:35.425Z,55.30
2018-07-26T05:15:05.004Z,55.30
2018-07-26T05:17:34.080Z,55.20
2018-07-26T05:20:02.496Z,54.90
2018-07-26T05:22:30.873Z,55.00
2018-07-26T05:24:59.573Z,55.00
2018-07-26T05:27:27.962Z,54.50
2018-07-26T05:29:56.549Z,54.50
2018-07-26T05:32:24.936Z,54.40
2018-07-26T05:34:53.456Z,54.30
2018-07-26T05:37:21.938Z,53.90
2018-07-26T05:39:50.328Z,54.10
2018-07-26T05:42:18.821Z,53.60
2018-07-26T05:47:16.347Z,53.30
2018-07-26T05:49:44.730Z,53.50
2018-07-26T05:52:13.240Z,53.40
2018-07-26T05:54:41.672Z,53.20
2018-07-26T05:57:10.096Z,52.90
2018-07-26T05:59:38.500Z,52.90
2018-07-26T06:02:07.214Z,53.20
2018-07-26T06:04:35.604Z,53.30
2018-07-26T06:07:04.180Z,53.30
2018-07-26T06:09:32.852Z,53.20
2018-07-26T06:12:01.300Z,53.20
2018-07-26T06:14:30.725Z,53.00
2018-07-26T06:16:59.542Z,53.10
2018-07-26T06:19:28.713Z,52.90
2018-07-26T06:21:57.120Z,53.00
2018-07-26T06:24:25.752Z,53.00
2018-07-26T06:26:54.286Z,52.60
2018-07-26T06:29:23.204Z,52.80
2018-07-26T06:31:51.712Z,52.70
2018-07-26T06:34:20.317Z,52.70
2018-07-26T06:36:48.768Z,52.40
2018-07-26T06:39:17.285Z,52.00
2018-07-26T06:41:45.783Z,51.60
2018-07-26T06:44:14.777Z,51.60
2018-07-26T06:46:43.569Z,51.70
2018-07-26T06:49:12.006Z,51.80
2018-07-26T06:51:40.399Z,51.80
2018-07-26T06:54:09.085Z,52.00
2018-07-26T06:56:37.654Z,52.00
2018-07-26T06:59:06.714Z,52.00
2018-07-26T07:01:35.129Z,52.10
2018-07-26T07:04:03.613Z,52.20
2018-07-26T07:06:32.177Z,52.10
2018-07-26T07:09:00.934Z,51.30
2018-07-26T07:11:29.350Z,51.00
2018-07-26T07:13:57.950Z,50.60
2018-07-26T07:18:54.632Z,50.20
2018-07-26T07:21:23.026Z,49.80
2018-07-26T07:23:51.649Z,49.40
2018-07-26T07:26:20.082Z,49.60
2018-07-26T07:28:48.536Z,49.30
2018-07-26T07:31:17.617Z,49.20
2018-07-26T07:33:46.169Z,49.30
2018-07-26T07:36:14.900Z,49.00
2018-07-26T07:38:43.879Z,48.30
2018-07-26T07:41:12.722Z,48.50
2018-07-26T07:43:41.141Z,48.50
2018-07-26T07:46:09.600Z,48.20
2018-07-26T07:48:38.213Z,47.70
2018-07-26T07:51:06.677Z,47.50
2018-07-26T07:53:35.130Z,47.60
2018-07-26T07:56:03.591Z,47.40
2018-07-26T07:58:32.369Z,47.20
2018-07-26T08:01:01.045Z,47.00
2018-07-26T08:03:29.924Z,46.20
2018-07-26T08:05:58.353Z,46.30
2018-07-26T08:08:26.783Z,46.40
2018-07-26T08:10:55.383Z,46.20
2018-07-26T08:13:24.067Z,45.90
2018-07-26T08:15:52.482Z,45.20
2018-07-26T08:18:21.864Z,44.80
2018-07-26T08:20:50.724Z,44.40
2018-07-26T08:23:19.177Z,43.70
2018-07-26T08:25:47.969Z,43.30
2018-07-26T08:28:17.017Z,42.90
2018-07-26T08:30:45.501Z,42.80
2018-07-26T08:33:14.169Z,41.60
2018-07-26T08:35:42.599Z,39.80
2018-07-26T08:38:11.160Z,39.90
2018-07-26T08:40:39.573Z,40.00
2018-07-26T08:43:08.429Z,40.00
2018-07-26T08:45:36.842Z,38.70
2018-07-26T08:48:05.425Z,37.90
2018-07-26T08:50:33.941Z,38.10
2018-07-26T08:53:02.425Z,37.80
2018-07-26T08:55:30.821Z,36.80
2018-07-26T08:57:59.273Z,36.60
2018-07-26T09:00:28.041Z,36.20
2018-07-26T09:02:56.529Z,35.40
2018-07-26T09:05:25.202Z,34.60
2018-07-26T09:07:53.618Z,34.90
2018-07-26T09:10:22.592Z,35.50
2018-07-26T09:12:51.009Z,34.90
2018-07-26T09:15:19.812Z,34.60
2018-07-26T09:17:48.293Z,35.60
2018-07-26T09:20:16.939Z,35.80
2018-07-26T09:22:45.531Z,35.30
2018-07-26T09:27:42.115Z,34.40
2018-07-26T09:30:11.404Z,34.00
2018-07-26T09:32:40.366Z,34.40
2018-07-26T09:35:09.093Z,34.00
2018-07-26T09:37:37.733Z,34.30
2018-07-26T09:40:06.212Z,34.00
2018-07-26T09:42:35.280Z,33.30
2018-07-26T09:45:03.785Z,33.50
2018-07-26T09:47:32.163Z,33.20
2018-07-26T09:50:00.589Z,32.60
2018-07-26T09:52:29.212Z,32.30
2018-07-26T09:54:57.632Z,31.90
2018-07-26T09:57:26.525Z,31.30
2018-07-26T09:59:55.096Z,30.90
2018-07-26T10:02:24.472Z,30.00
2018-07-26T10:04:52.874Z,30.50
2018-07-26T10:07:21.356Z,29.80
2018-07-26T10:09:49.847Z,29.40
2018-07-26T10:12:18.302Z,29.10
2018-07-26T10:14:46.985Z,28.70
2018-07-26T10:17:15.481Z,29.50
2018-07-26T10:19:43.972Z,30.00
2018-07-26T10:22:12.509Z,30.00
2018-07-26T10:24:40.945Z,30.90
2018-07-26T10:27:09.606Z,31.50
2018-07-26T10:29:38.005Z,31.50
2018-07-26T10:34:34.664Z,30.00
2018-07-26T10:37:03.144Z,30.40
2018-07-26T10:39:31.629Z,30.10
2018-07-26T10:42:00.103Z,29.30
2018-07-26T10:44:29.023Z,29.60
2018-07-26T10:46:57.531Z,29.70
2018-07-26T10:49:26.121Z,29.80
2018-07-26T10:51:54.593Z,30.10
2018-07-26T10:54:23.004Z,30.10
2018-07-26T10:56:51.439Z,30.10
2018-07-26T10:59:19.844Z,30.00
2018-07-26T11:01:48.532Z,29.80
2018-07-26T11:04:18.042Z,30.10
2018-07-26T11:06:46.504Z,30.50
2018-07-26T11:09:15.038Z,31.00
2018-07-26T11:11:43.515Z,30.90
2018-07-26T11:14:12.153Z,30.50
2018-07-26T11:16:40.726Z,30.20
2018-07-26T11:19:09.093Z,30.50
2018-07-26T11:21:37.799Z,30.20
2018-07-26T11:24:06.517Z,30.00
2018-07-26T11:26:35.212Z,29.90
2018-07-26T11:29:03.796Z,29.60
2018-07-26T11:31:32.266Z,29.60
2018-07-26T11:34:00.875Z,29.40
2018-07-26T11:36:29.458Z,29.50
2018-07-26T11:38:58.367Z,29.90
2018-07-26T11:41:27.161Z,29.90
2018-07-26T11:43:55.605Z,30.30
2018-07-26T11:46:24.034Z,30.50
2018-07-26T11:48:52.412Z,30.00
2018-07-26T11:51:20.865Z,29.80
2018-07-26T11:53:49.268Z,30.00
2018-07-26T11:56:17.874Z,29.70
2018-07-26T11:58:46.266Z,29.30
2018-07-26T12:01:14.749Z,29.60
2018-07-26T12:03:43.769Z,29.20
2018-07-26T12:06:12.390Z,28.80
2018-07-26T12:08:40.744Z,28.80
2018-07-26T12:11:09.219Z,28.40
2018-07-26T12:13:38.237Z,28.40
2018-07-26T12:16:06.893Z,29.30
2018-07-26T12:18:35.308Z,29.40
2018-07-26T12:21:03.889Z,29.70
2018-07-26T12:23:32.378Z,29.70
2018-07-26T12:26:00.773Z,29.90
2018-07-26T12:28:29.193Z,30.00
2018-07-26T12:30:57.607Z,29.90
2018-07-26T12:33:26.304Z,29.60
2018-07-26T12:35:54.735Z,29.60
2018-07-26T12:38:23.422Z,28.70
2018-07-26T12:40:51.851Z,28.70
2018-07-26T12:43:20.334Z,28.40
2018-07-26T12:45:48.768Z,28.60
2018-07-26T12:48:17.133Z,28.30
2018-07-26T12:50:46.379Z,28.70
2018-07-26T12:53:15.023Z,28.80
2018-07-26T12:55:43.649Z,28.70
2018-07-26T12:58:12.272Z,28.80
2018-07-26T13:00:40.735Z,27.90
2018-07-26T13:03:09.172Z,27.30
2018-07-26T13:05:37.862Z,27.90
2018-07-26T13:08:06.679Z,26.20
2018-07-26T13:10:35.098Z,24.10
2018-07-26T13:13:03.544Z,23.50
2018-07-26T13:15:32.302Z,21.50
2018-07-26T13:18:00.806Z,20.70
2018-07-26T13:20:29.594Z,22.00
2018-07-26T13:22:58.468Z,20.50
2018-07-26T13:25:26.939Z,18.40
2018-07-26T13:27:55.557Z,19.20
2018-07-26T13:30:24.144Z,19.00
2018-07-26T13:32:52.553Z,20.50
2018-07-26T13:35:20.938Z,20.70
2018-07-26T13:37:49.372Z,20.20
2018-07-26T13:40:18.499Z,20.20
2018-07-26T13:42:47.408Z,19.30
2018-07-26T13:45:16.394Z,19.40
2018-07-26T13:47:44.851Z,19.90
2018-07-26T13:50:13.447Z,19.30
2018-07-26T13:52:41.954Z,18.70
2018-07-26T13:55:10.345Z,19.80
2018-07-26T13:57:38.939Z,20.40
2018-07-26T14:00:07.666Z,20.50
2018-07-26T14:02:36.249Z,21.30
2018-07-26T14:05:04.828Z,22.50
2018-07-26T14:07:33.200Z,20.60
2018-07-26T14:10:01.750Z,20.00
2018-07-26T14:12:30.146Z,18.90
2018-07-26T14:14:58.848Z,17.50
2018-07-26T14:17:27.271Z,15.30
2018-07-26T14:19:55.904Z,14.90
2018-07-26T14:22:24.368Z,13.30
2018-07-26T14:24:52.855Z,12.90
2018-07-26T14:27:21.362Z,10.90
2018-07-26T14:29:49.769Z,11.10
2018-07-26T14:32:18.152Z,11.20
2018-07-26T14:34:46.727Z,11.30
2018-07-26T14:37:15.133Z,11.50
2018-07-26T14:42:12.105Z,10.70
2018-07-26T14:44:40.703Z,9.80
2018-07-26T14:47:09.109Z,9.80
2018-07-26T14:49:37.777Z,9.60
2018-07-26T14:52:06.155Z,10.40
2018-07-26T14:54:34.757Z,11.70
2018-07-26T14:57:03.399Z,13.00
2018-07-26T14:59:32.703Z,13.40
2018-07-26T15:04:29.528Z,12.10
2018-07-26T15:06:58.031Z,13.00
2018-07-26T15:09:27.268Z,12.70
2018-07-26T15:11:55.671Z,12.10
2018-07-26T15:14:24.308Z,13.30
2018-07-26T15:16:52.697Z,12.10
2018-07-26T15:19:21.116Z,10.00
2018-07-26T15:21:49.481Z,10.50
2018-07-26T15:24:18.011Z,9.20
2018-07-26T15:26:46.647Z,8.10
2018-07-26T15:29:15.756Z,7.10
2018-07-26T15:31:44.358Z,6.20
2018-07-26T15:34:12.741Z,5.80
2018-07-26T15:36:41.216Z,4.90
2018-07-26T15:39:10.448Z,4.40
2018-07-26T15:41:43.052Z,4.00
2018-07-26T15:44:12.797Z,3.30
2018-07-26T15:46:41.379Z,1.30
2018-07-26T15:49:10.323Z,2.30
2018-07-26T15:51:38.819Z,1.30
2018-07-26T15:54:07.353Z,1.40
2018-07-26T15:56:35.933Z,1.40
2018-07-26T15:59:04.410Z,1.60
2018-07-26T16:01:32.796Z,1.60
2018-07-26T16:04:01.293Z,1.60
2018-07-26T16:06:30.600Z,1.70
2018-07-26T16:08:59.069Z,1.80
2018-07-26T16:11:28.040Z,1.90
2018-07-26T16:13:56.542Z,1.10
2018-07-26T16:16:26.011Z,1.00
2018-07-26T16:18:54.569Z,1.00
2018-07-26T16:21:23.196Z,1.00
2018-07-26T16:23:51.675Z,1.00
2018-07-26T16:26:20.088Z,1.00
2018-07-26T16:28:48.540Z,1.00
2018-07-26T16:31:16.940Z,1.00
2018-07-26T16:33:45.606Z,2.20
2018-07-26T16:36:14.017Z,4.30
2018-07-26T16:41:10.872Z,7.80
2018-07-26T16:43:39.697Z,7.90
2018-07-26T16:46:08.114Z,7.30
2018-07-26T16:48:36.530Z,8.80
2018-07-26T16:51:05.195Z,9.50
2018-07-26T16:53:34.196Z,10.60
2018-07-26T16:56:02.814Z,11.20
2018-07-26T16:58:31.517Z,12.00
2018-07-26T17:01:00.157Z,12.70
2018-07-26T17:03:28.689Z,13.20
2018-07-26T17:05:57.157Z,13.90
2018-07-26T17:08:25.625Z,14.50
2018-07-26T17:10:54.153Z,14.90
2018-07-26T17:13:22.724Z,15.30
2018-07-26T17:15:51.273Z,15.80
2018-07-26T17:18:19.958Z,16.50
2018-07-26T17:20:48.403Z,16.40
2018-07-26T17:23:17.260Z,16.30
2018-07-26T17:25:46.381Z,16.20
2018-07-26T17:28:15.904Z,16.10
2018-07-26T17:30:44.623Z,16.10
2018-07-26T17:33:13.266Z,15.90
2018-07-26T17:35:41.778Z,16.10
2018-07-26T17:38:10.218Z,16.60
2018-07-26T17:40:38.753Z,16.90
2018-07-26T17:43:07.921Z,17.20
2018-07-26T17:45:36.748Z,17.30
2018-07-26T17:48:05.681Z,17.80
2018-07-26T17:50:34.318Z,17.90
2018-07-26T17:53:03.372Z,18.20
2018-07-26T17:55:31.821Z,18.40
2018-07-26T17:58:00.540Z,18.60
2018-07-26T18:00:28.992Z,18.90
2018-07-26T18:02:57.396Z,19.00
2018-07-26T18:07:54.220Z,19.40
2018-07-26T18:10:22.798Z,19.60
2018-07-26T18:12:51.237Z,19.90
2018-07-26T18:15:19.719Z,20.00
2018-07-26T18:17:48.112Z,20.10
2018-07-26T18:20:16.621Z,20.30
2018-07-26T18:22:45.208Z,20.50
2018-07-26T18:25:13.817Z,20.70
2018-07-26T18:27:42.260Z,20.90
2018-07-26T18:30:11.012Z,21.00
2018-07-26T18:32:39.472Z,21.00
2018-07-26T18:35:08.057Z,21.20
2018-07-26T18:37:36.498Z,21.30
2018-07-26T18:40:06.796Z,21.50
2018-07-26T18:42:35.339Z,21.60
2018-07-26T18:45:03.802Z,21.80
2018-07-26T18:47:32.554Z,21.90
2018-07-26T18:50:00.941Z,22.10
2018-07-26T18:52:29.407Z,22.40
2018-07-26T18:54:58.261Z,22.50
2018-07-26T18:57:26.876Z,22.70
2018-07-26T18:59:55.290Z,22.80
2018-07-26T19:02:23.834Z,23.10
2018-07-26T19:04:52.481Z,23.20
2018-07-26T19:07:20.938Z,23.60
2018-07-26T19:09:49.505Z,23.50
2018-07-26T19:12:17.938Z,23.90
2018-07-26T19:14:46.509Z,24.00
2018-07-26T19:17:15.180Z,24.10
2018-07-26T19:19:43.596Z,24.30
2018-07-26T19:22:12.286Z,24.50
2018-07-26T19:27:08.941Z,25.00
2018-07-26T19:29:37.451Z,25.40
2018-07-26T19:32:06.090Z,25.70
2018-07-26T19:34:34.728Z,25.70
2018-07-26T19:37:03.341Z,25.60
2018-07-26T19:39:31.952Z,25.60
2018-07-26T19:42:00.496Z,25.50
2018-07-26T19:44:28.965Z,25.40
2018-07-26T19:46:57.417Z,25.40
2018-07-26T19:49:25.824Z,25.30
2018-07-26T19:51:54.355Z,25.90
2018-07-26T19:54:22.885Z,26.00
2018-07-26T19:56:51.250Z,26.40
2018-07-26T19:59:19.808Z,26.80
2018-07-26T20:01:48.199Z,26.80
2018-07-26T20:04:17.176Z,27.10
2018-07-26T20:06:45.513Z,27.50
2018-07-26T20:09:14.168Z,27.80
2018-07-26T20:11:43.339Z,28.10
2018-07-26T20:14:11.796Z,28.20
2018-07-26T20:16:40.691Z,28.10
2018-07-26T20:21:38.002Z,28.70
2018-07-26T20:24:06.454Z,28.70
2018-07-26T20:29:03.354Z,28.70
2018-07-26T20:31:32.268Z,28.70
2018-07-26T20:34:00.736Z,28.90
2018-07-26T20:36:29.604Z,29.00
2018-07-26T20:38:58.047Z,29.20
2018-07-26T20:41:26.502Z,29.50
2018-07-26T20:43:54.981Z,29.40
2018-07-26T20:46:23.425Z,29.50
2018-07-26T20:48:51.873Z,29.60
2018-07-26T20:51:20.368Z,30.00
2018-07-26T20:53:49.153Z,30.20
2018-07-26T20:56:17.633Z,30.20
2018-07-26T20:58:46.120Z,30.20
2018-07-26T21:01:14.595Z,30.30
2018-07-26T21:03:43.029Z,30.20
2018-07-26T21:06:11.679Z,30.90
2018-07-26T21:08:40.100Z,31.50
2018-07-26T21:11:08.520Z,32.10
2018-07-26T21:13:36.985Z,31.90
2018-07-26T21:16:05.770Z,32.40
2018-07-26T21:18:34.400Z,32.80
2018-07-26T21:21:02.785Z,32.90
2018-07-26T21:23:31.409Z,33.90
2018-07-26T21:25:59.850Z,33.80
2018-07-26T21:28:28.201Z,33.90
2018-07-26T21:30:56.674Z,33.70
2018-07-26T21:33:25.921Z,34.50
2018-07-26T21:35:54.936Z,34.40
2018-07-26T21:38:23.441Z,34.90
2018-07-26T21:40:51.975Z,35.20
2018-07-26T21:43:20.318Z,35.50
2018-07-26T21:48:17.192Z,36.00
2018-07-26T21:50:45.645Z,36.90
2018-07-26T21:53:14.089Z,36.30
2018-07-26T21:55:42.837Z,36.80
2018-07-26T21:58:11.215Z,36.60
2018-07-26T22:03:13.077Z,36.60
2018-07-26T22:05:42.012Z,36.70
2018-07-26T22:08:10.461Z,36.60
2018-07-26T22:13:07.113Z,36.60
2018-07-26T22:15:35.797Z,36.50
2018-07-26T22:18:04.182Z,36.50
2018-07-26T22:20:32.618Z,36.50
2018-07-26T22:23:01.201Z,36.50
2018-07-26T22:25:29.769Z,36.40
2018-07-26T22:27:58.185Z,37.30
2018-07-26T22:30:26.589Z,37.70
2018-07-26T22:32:55.013Z,38.00
2018-07-26T22:35:23.601Z,38.30
2018-07-26T22:37:51.996Z,38.60
2018-07-26T22:40:20.388Z,38.30
2018-07-26T22:42:49.563Z,39.20
2018-07-26T22:45:17.949Z,39.30
2018-07-26T22:47:46.348Z,39.20
2018-07-26T22:50:14.720Z,39.30
2018-07-26T22:52:43.626Z,39.40
2018-07-26T22:55:12.500Z,40.10
2018-07-26T22:57:40.945Z,40.50
2018-07-26T23:00:09.518Z,40.60
2018-07-26T23:02:37.916Z,40.90
2018-07-26T23:05:06.381Z,41.20
2018-07-26T23:07:34.783Z,41.00
2018-07-26T23:10:03.421Z,40.90
2018-07-26T23:12:31.937Z,41.00
2018-07-26T23:15:00.477Z,41.20
2018-07-26T23:17:29.307Z,41.00
2018-07-26T23:19:57.929Z,41.00
2018-07-26T23:22:26.308Z,40.90
2018-07-26T23:24:54.708Z,40.90
2018-07-26T23:27:23.460Z,41.40
2018-07-26T23:29:51.848Z,41.40
2018-07-26T23:32:20.243Z,41.90
2018-07-26T23:34:48.669Z,42.10
2018-07-26T23:37:17.089Z,42.50
2018-07-26T23:39:45.514Z,42.60
2018-07-26T23:42:14.718Z,42.70
2018-07-26T23:44:43.117Z,42.60
2018-07-26T23:47:11.599Z,42.70
2018-07-26T23:49:40.013Z,42.80
2018-07-26T23:52:08.375Z,42.60
2018-07-26T23:54:36.929Z,42.60
2018-07-26T23:57:05.569Z,42.60
2018-07-26T23:59:33.960Z,42.60
